TimeMST,TemperatureF,Dew PointF,Humidity,Sea Level PressureIn,VisibilityMPH,Wind Direction,Wind SpeedMPH,Gust SpeedMPH,PrecipitationIn,Events,Conditions,WindDirDegrees,DateUTC
12:53 AM,9.0,3.9,80,30.20,10.0,Calm,Calm,-,N/A,,Clear,0,2013-02-07 07:53:00
1:53 AM,9.0,5.0,84,30.17,10.0,SE,4.6,-,N/A,,Clear,140,2013-02-07 08:53:00
2:53 AM,9.0,3.0,77,30.16,10.0,Calm,Calm,-,N/A,,Mostly Cloudy,0,2013-02-07 09:53:00
3:53 AM,10.0,6.1,84,30.14,10.0,Calm,Calm,-,N/A,,Scattered Clouds,0,2013-02-07 10:53:00
4:53 AM,10.9,6.1,81,30.13,10.0,SSE,3.5,-,N/A,,Mostly Cloudy,150,2013-02-07 11:53:00
5:53 AM,12.0,7.0,80,30.14,10.0,Calm,Calm,-,N/A,,Clear,0,2013-02-07 12:53:00
6:53 AM,12.9,8.1,81,30.13,10.0,Calm,Calm,-,N/A,,Clear,0,2013-02-07 13:53:00
7:53 AM,12.0,8.1,84,30.16,10.0,South,5.8,-,N/A,,Mostly Cloudy,190,2013-02-07 14:53:00
8:53 AM,16.0,10.0,77,30.15,10.0,Calm,Calm,-,N/A,,Mostly Cloudy,0,2013-02-07 15:53:00
9:53 AM,18.0,12.0,78,30.16,10.0,Calm,Calm,-,N/A,,Clear,0,2013-02-07 16:53:00
10:53 AM,19.9,12.0,71,30.18,10.0,SSE,3.5,-,N/A,,Clear,160,2013-02-07 17:53:00
11:53 AM,26.1,14.0,60,30.13,10.0,Calm,Calm,-,N/A,,Clear,0,2013-02-07 18:53:00
12:53 PM,30.9,16.0,54,30.09,10.0,North,5.8,-,N/A,,Clear,360,2013-02-07 19:53:00
1:53 PM,33.1,16.0,50,30.05,10.0,North,4.6,-,N/A,,Clear,10,2013-02-07 20:53:00
2:53 PM,35.1,16.0,46,30.02,10.0,North,4.6,-,N/A,,Clear,10,2013-02-07 21:53:00
3:53 PM,34.0,16.0,48,30.01,10.0,North,3.5,-,N/A,,Clear,360,2013-02-07 22:53:00
4:53 PM,34.0,17.1,50,29.99,10.0,Calm,Calm,-,N/A,,Clear,0,2013-02-07 23:53:00
5:53 PM,30.0,17.1,59,30.01,10.0,West,3.5,-,N/A,,Clear,260,2013-02-08 00:53:00
6:53 PM,25.0,16.0,69,30.04,10.0,Calm,Calm,-,N/A,,Clear,0,2013-02-08 01:53:00
7:53 PM,21.9,14.0,72,30.05,10.0,Calm,Calm,-,N/A,,Clear,0,2013-02-08 02:53:00
8:53 PM,21.9,15.1,75,30.04,10.0,Calm,Calm,-,N/A,,Mostly Cloudy,0,2013-02-08 03:53:00
9:53 PM,21.0,14.0,74,30.04,10.0,SSE,3.5,-,N/A,,Overcast,160,2013-02-08 04:53:00
10:53 PM,21.0,15.1,78,30.04,10.0,Calm,Calm,-,N/A,,Overcast,0,2013-02-08 05:53:00
11:53 PM,19.9,14.0,78,30.02,10.0,Calm,Calm,-,N/A,,Scattered Clouds,0,2013-02-08 06:53:00